sensor_id;sensor_type;location;lat;lon;timestamp;temperature;humidity
52799;DHT22;38667;42.872;74.622;2022-11-20T00:01:42;7.60;82.30
52799;DHT22;38667;42.872;74.622;2022-11-20T00:04:10;7.70;81.50
52799;DHT22;38667;42.872;74.622;2022-11-20T00:06:36;7.80;81.90
52799;DHT22;38667;42.872;74.622;2022-11-20T00:09:03;7.70;83.00
52799;DHT22;38667;42.872;74.622;2022-11-20T00:11:30;7.60;84.20
52799;DHT22;38667;42.872;74.622;2022-11-20T00:13:58;7.50;85.60
52799;DHT22;38667;42.872;74.622;2022-11-20T00:16:27;7.40;86.60
52799;DHT22;38667;42.872;74.622;2022-11-20T00:18:54;7.20;87.00
52799;DHT22;38667;42.872;74.622;2022-11-20T00:21:22;7.20;87.50
52799;DHT22;38667;42.872;74.622;2022-11-20T00:23:49;7.30;86.20
52799;DHT22;38667;42.872;74.622;2022-11-20T00:26:18;7.40;85.30
52799;DHT22;38667;42.872;74.622;2022-11-20T00:28:49;7.40;85.00
52799;DHT22;38667;42.872;74.622;2022-11-20T00:31:16;7.30;85.60
52799;DHT22;38667;42.872;74.622;2022-11-20T00:33:44;7.30;85.90
52799;DHT22;38667;42.872;74.622;2022-11-20T00:36:13;7.30;85.30
52799;DHT22;38667;42.872;74.622;2022-11-20T00:38:39;7.30;85.90
52799;DHT22;38667;42.872;74.622;2022-11-20T00:41:07;7.30;86.20
52799;DHT22;38667;42.872;74.622;2022-11-20T00:43:34;7.30;86.00
52799;DHT22;38667;42.872;74.622;2022-11-20T00:46:02;7.30;86.40
52799;DHT22;38667;42.872;74.622;2022-11-20T00:48:29;7.20;86.40
52799;DHT22;38667;42.872;74.622;2022-11-20T00:50:57;7.20;86.00
52799;DHT22;38667;42.872;74.622;2022-11-20T00:53:23;7.30;85.60
52799;DHT22;38667;42.872;74.622;2022-11-20T00:55:56;7.40;85.30
52799;DHT22;38667;42.872;74.622;2022-11-20T00:58:23;7.50;85.60
52799;DHT22;38667;42.872;74.622;2022-11-20T01:00:50;7.50;85.70
52799;DHT22;38667;42.872;74.622;2022-11-20T01:03:17;7.50;85.60
52799;DHT22;38667;42.872;74.622;2022-11-20T01:05:43;7.60;85.10
52799;DHT22;38667;42.872;74.622;2022-11-20T01:08:11;7.60;84.40
52799;DHT22;38667;42.872;74.622;2022-11-20T01:10:37;7.70;84.70
52799;DHT22;38667;42.872;74.622;2022-11-20T01:13:03;7.70;84.60
52799;DHT22;38667;42.872;74.622;2022-11-20T01:15:30;7.70;85.20
52799;DHT22;38667;42.872;74.622;2022-11-20T01:17:56;7.60;85.30
52799;DHT22;38667;42.872;74.622;2022-11-20T01:20:22;7.60;85.90
52799;DHT22;38667;42.872;74.622;2022-11-20T01:22:48;7.50;86.70
52799;DHT22;38667;42.872;74.622;2022-11-20T01:25:16;7.50;86.90
52799;DHT22;38667;42.872;74.622;2022-11-20T01:27:43;7.50;86.40
52799;DHT22;38667;42.872;74.622;2022-11-20T01:30:10;7.50;87.40
52799;DHT22;38667;42.872;74.622;2022-11-20T01:32:36;7.60;87.30
52799;DHT22;38667;42.872;74.622;2022-11-20T01:35:03;7.70;82.40
52799;DHT22;38667;42.872;74.622;2022-11-20T01:37:29;7.90;80.50
52799;DHT22;38667;42.872;74.622;2022-11-20T01:39:56;8.10;79.10
52799;DHT22;38667;42.872;74.622;2022-11-20T01:42:24;8.30;77.90
52799;DHT22;38667;42.872;74.622;2022-11-20T01:44:53;8.30;77.30
52799;DHT22;38667;42.872;74.622;2022-11-20T01:47:29;8.40;77.00
52799;DHT22;38667;42.872;74.622;2022-11-20T01:50:01;8.50;77.90
52799;DHT22;38667;42.872;74.622;2022-11-20T01:52:32;8.40;80.10
52799;DHT22;38667;42.872;74.622;2022-11-20T01:55:03;8.40;80.40
52799;DHT22;38667;42.872;74.622;2022-11-20T01:57:34;8.40;78.40
52799;DHT22;38667;42.872;74.622;2022-11-20T02:00:04;8.30;80.80
52799;DHT22;38667;42.872;74.622;2022-11-20T02:02:32;8.30;81.20
52799;DHT22;38667;42.872;74.622;2022-11-20T02:05:04;8.20;82.10
52799;DHT22;38667;42.872;74.622;2022-11-20T02:07:35;8.20;82.20
52799;DHT22;38667;42.872;74.622;2022-11-20T02:10:02;8.20;83.10
52799;DHT22;38667;42.872;74.622;2022-11-20T02:12:29;8.20;83.30
52799;DHT22;38667;42.872;74.622;2022-11-20T02:14:57;8.20;83.50
52799;DHT22;38667;42.872;74.622;2022-11-20T02:17:24;8.30;82.20
52799;DHT22;38667;42.872;74.622;2022-11-20T02:19:50;8.40;78.10
52799;DHT22;38667;42.872;74.622;2022-11-20T02:22:21;8.60;75.00
52799;DHT22;38667;42.872;74.622;2022-11-20T02:24:53;8.80;73.40
52799;DHT22;38667;42.872;74.622;2022-11-20T02:27:20;9.00;73.30
52799;DHT22;38667;42.872;74.622;2022-11-20T02:29:50;9.00;74.50
52799;DHT22;38667;42.872;74.622;2022-11-20T02:32:20;8.90;78.00
52799;DHT22;38667;42.872;74.622;2022-11-20T02:34:48;8.90;79.00
52799;DHT22;38667;42.872;74.622;2022-11-20T02:37:14;8.80;80.20
52799;DHT22;38667;42.872;74.622;2022-11-20T02:39:42;8.70;81.20
52799;DHT22;38667;42.872;74.622;2022-11-20T02:42:10;8.70;82.40
52799;DHT22;38667;42.872;74.622;2022-11-20T02:44:36;8.70;82.90
52799;DHT22;38667;42.872;74.622;2022-11-20T02:47:03;8.60;82.40
52799;DHT22;38667;42.872;74.622;2022-11-20T02:49:29;8.70;83.00
52799;DHT22;38667;42.872;74.622;2022-11-20T02:51:55;8.70;82.80
52799;DHT22;38667;42.872;74.622;2022-11-20T02:54:22;8.80;82.60
52799;DHT22;38667;42.872;74.622;2022-11-20T02:56:48;8.90;82.50
52799;DHT22;38667;42.872;74.622;2022-11-20T02:59:16;8.80;81.80
52799;DHT22;38667;42.872;74.622;2022-11-20T03:01:42;8.90;81.80
52799;DHT22;38667;42.872;74.622;2022-11-20T03:04:09;8.90;81.30
52799;DHT22;38667;42.872;74.622;2022-11-20T03:06:35;9.00;81.30
52799;DHT22;38667;42.872;74.622;2022-11-20T03:09:01;9.00;81.70
52799;DHT22;38667;42.872;74.622;2022-11-20T03:11:28;9.10;75.00
52799;DHT22;38667;42.872;74.622;2022-11-20T03:13:54;9.40;72.80
52799;DHT22;38667;42.872;74.622;2022-11-20T03:16:23;9.60;71.00
52799;DHT22;38667;42.872;74.622;2022-11-20T03:18:51;9.70;69.80
52799;DHT22;38667;42.872;74.622;2022-11-20T03:21:18;9.80;68.80
52799;DHT22;38667;42.872;74.622;2022-11-20T03:23:44;9.90;67.80
52799;DHT22;38667;42.872;74.622;2022-11-20T03:26:12;10.00;66.90
52799;DHT22;38667;42.872;74.622;2022-11-20T03:28:39;10.10;66.50
52799;DHT22;38667;42.872;74.622;2022-11-20T03:31:07;10.10;66.10
52799;DHT22;38667;42.872;74.622;2022-11-20T03:33:35;10.20;65.80
52799;DHT22;38667;42.872;74.622;2022-11-20T03:36:02;10.20;65.70
52799;DHT22;38667;42.872;74.622;2022-11-20T03:38:29;10.30;65.20
52799;DHT22;38667;42.872;74.622;2022-11-20T03:40:59;10.30;65.00
52799;DHT22;38667;42.872;74.622;2022-11-20T03:43:25;10.40;64.80
52799;DHT22;38667;42.872;74.622;2022-11-20T03:45:51;10.40;64.40
52799;DHT22;38667;42.872;74.622;2022-11-20T03:48:18;10.50;63.30
52799;DHT22;38667;42.872;74.622;2022-11-20T03:50:45;10.60;63.10
52799;DHT22;38667;42.872;74.622;2022-11-20T03:53:12;10.70;62.50
52799;DHT22;38667;42.872;74.622;2022-11-20T03:55:38;10.70;61.90
52799;DHT22;38667;42.872;74.622;2022-11-20T03:58:04;10.80;61.90
52799;DHT22;38667;42.872;74.622;2022-11-20T04:00:30;10.90;61.20
52799;DHT22;38667;42.872;74.622;2022-11-20T04:02:58;11.00;61.20
52799;DHT22;38667;42.872;74.622;2022-11-20T04:05:25;11.00;61.20
52799;DHT22;38667;42.872;74.622;2022-11-20T04:07:52;11.10;61.20
52799;DHT22;38667;42.872;74.622;2022-11-20T04:10:19;11.10;61.40
52799;DHT22;38667;42.872;74.622;2022-11-20T04:12:45;11.20;60.80
52799;DHT22;38667;42.872;74.622;2022-11-20T04:15:11;11.20;60.30
52799;DHT22;38667;42.872;74.622;2022-11-20T04:17:38;11.30;60.70
52799;DHT22;38667;42.872;74.622;2022-11-20T04:20:05;11.40;59.90
52799;DHT22;38667;42.872;74.622;2022-11-20T04:22:31;11.50;58.20
52799;DHT22;38667;42.872;74.622;2022-11-20T04:24:59;11.60;58.50
52799;DHT22;38667;42.872;74.622;2022-11-20T04:27:26;11.60;57.50
52799;DHT22;38667;42.872;74.622;2022-11-20T04:29:52;11.70;58.20
52799;DHT22;38667;42.872;74.622;2022-11-20T04:32:18;11.70;58.70
52799;DHT22;38667;42.872;74.622;2022-11-20T04:34:44;11.90;58.50
52799;DHT22;38667;42.872;74.622;2022-11-20T04:37:11;11.90;58.30
52799;DHT22;38667;42.872;74.622;2022-11-20T04:39:37;12.00;58.30
52799;DHT22;38667;42.872;74.622;2022-11-20T04:42:05;12.20;58.20
52799;DHT22;38667;42.872;74.622;2022-11-20T04:46:57;12.40;58.60
52799;DHT22;38667;42.872;74.622;2022-11-20T04:49:23;12.50;57.60
52799;DHT22;38667;42.872;74.622;2022-11-20T04:51:53;12.60;56.10
52799;DHT22;38667;42.872;74.622;2022-11-20T04:54:19;12.70;56.20
52799;DHT22;38667;42.872;74.622;2022-11-20T04:56:47;12.90;56.10
52799;DHT22;38667;42.872;74.622;2022-11-20T04:59:15;13.00;54.10
52799;DHT22;38667;42.872;74.622;2022-11-20T05:01:42;13.20;53.50
52799;DHT22;38667;42.872;74.622;2022-11-20T05:04:08;13.30;52.90
52799;DHT22;38667;42.872;74.622;2022-11-20T05:06:34;13.50;51.30
52799;DHT22;38667;42.872;74.622;2022-11-20T05:09:01;13.50;51.60
52799;DHT22;38667;42.872;74.622;2022-11-20T05:11:27;13.60;51.60
52799;DHT22;38667;42.872;74.622;2022-11-20T05:13:53;13.60;50.00
52799;DHT22;38667;42.872;74.622;2022-11-20T05:16:23;13.50;48.90
52799;DHT22;38667;42.872;74.622;2022-11-20T05:18:49;13.50;47.30
52799;DHT22;38667;42.872;74.622;2022-11-20T05:21:16;13.40;48.60
52799;DHT22;38667;42.872;74.622;2022-11-20T05:23:43;13.40;48.10
52799;DHT22;38667;42.872;74.622;2022-11-20T05:26:13;13.30;47.80
52799;DHT22;38667;42.872;74.622;2022-11-20T05:28:40;13.30;48.00
52799;DHT22;38667;42.872;74.622;2022-11-20T05:31:07;13.30;47.80
52799;DHT22;38667;42.872;74.622;2022-11-20T05:33:36;13.30;48.20
52799;DHT22;38667;42.872;74.622;2022-11-20T05:36:02;13.20;48.90
52799;DHT22;38667;42.872;74.622;2022-11-20T05:38:29;13.30;48.00
52799;DHT22;38667;42.872;74.622;2022-11-20T05:41:02;13.30;48.30
52799;DHT22;38667;42.872;74.622;2022-11-20T05:43:31;13.50;48.30
52799;DHT22;38667;42.872;74.622;2022-11-20T05:45:57;13.70;49.10
52799;DHT22;38667;42.872;74.622;2022-11-20T05:48:23;13.80;45.90
52799;DHT22;38667;42.872;74.622;2022-11-20T05:50:51;13.80;46.80
52799;DHT22;38667;42.872;74.622;2022-11-20T05:53:17;13.80;47.70
52799;DHT22;38667;42.872;74.622;2022-11-20T05:55:43;13.90;49.10
52799;DHT22;38667;42.872;74.622;2022-11-20T05:58:10;13.90;49.80
52799;DHT22;38667;42.872;74.622;2022-11-20T06:00:36;14.10;48.50
52799;DHT22;38667;42.872;74.622;2022-11-20T06:03:02;14.20;46.60
52799;DHT22;38667;42.872;74.622;2022-11-20T06:05:29;14.30;45.40
52799;DHT22;38667;42.872;74.622;2022-11-20T06:07:56;14.30;45.10
52799;DHT22;38667;42.872;74.622;2022-11-20T06:10:23;14.30;44.40
52799;DHT22;38667;42.872;74.622;2022-11-20T06:12:49;14.40;44.50
52799;DHT22;38667;42.872;74.622;2022-11-20T06:15:15;14.40;44.70
52799;DHT22;38667;42.872;74.622;2022-11-20T06:17:42;14.40;44.90
52799;DHT22;38667;42.872;74.622;2022-11-20T06:20:09;14.50;44.70
52799;DHT22;38667;42.872;74.622;2022-11-20T06:22:36;14.40;45.60
52799;DHT22;38667;42.872;74.622;2022-11-20T06:25:04;14.40;46.70
52799;DHT22;38667;42.872;74.622;2022-11-20T06:27:30;14.50;45.90
52799;DHT22;38667;42.872;74.622;2022-11-20T06:29:56;14.60;44.20
52799;DHT22;38667;42.872;74.622;2022-11-20T06:32:22;14.50;43.50
52799;DHT22;38667;42.872;74.622;2022-11-20T06:34:49;14.50;43.30
52799;DHT22;38667;42.872;74.622;2022-11-20T06:37:15;14.30;43.60
52799;DHT22;38667;42.872;74.622;2022-11-20T06:39:41;14.20;45.40
52799;DHT22;38667;42.872;74.622;2022-11-20T06:42:09;14.30;45.70
52799;DHT22;38667;42.872;74.622;2022-11-20T06:44:35;14.30;45.90
52799;DHT22;38667;42.872;74.622;2022-11-20T06:47:02;14.40;44.90
52799;DHT22;38667;42.872;74.622;2022-11-20T06:49:28;14.40;43.60
52799;DHT22;38667;42.872;74.622;2022-11-20T06:51:54;14.30;43.90
52799;DHT22;38667;42.872;74.622;2022-11-20T06:54:20;14.30;44.70
52799;DHT22;38667;42.872;74.622;2022-11-20T06:56:47;14.40;45.20
52799;DHT22;38667;42.872;74.622;2022-11-20T06:59:15;14.40;43.80
52799;DHT22;38667;42.872;74.622;2022-11-20T07:01:41;14.50;43.50
52799;DHT22;38667;42.872;74.622;2022-11-20T07:04:08;14.60;43.20
52799;DHT22;38667;42.872;74.622;2022-11-20T07:06:34;14.70;43.80
52799;DHT22;38667;42.872;74.622;2022-11-20T07:09:00;14.70;43.90
52799;DHT22;38667;42.872;74.622;2022-11-20T07:11:26;14.70;43.70
52799;DHT22;38667;42.872;74.622;2022-11-20T07:13:53;14.60;43.90
52799;DHT22;38667;42.872;74.622;2022-11-20T07:16:21;14.50;44.10
52799;DHT22;38667;42.872;74.622;2022-11-20T07:18:47;14.50;44.00
52799;DHT22;38667;42.872;74.622;2022-11-20T07:21:13;14.50;44.10
52799;DHT22;38667;42.872;74.622;2022-11-20T07:23:40;14.60;44.20
52799;DHT22;38667;42.872;74.622;2022-11-20T07:26:07;14.60;44.00
52799;DHT22;38667;42.872;74.622;2022-11-20T07:28:34;14.80;44.20
52799;DHT22;38667;42.872;74.622;2022-11-20T07:31:01;15.00;44.40
52799;DHT22;38667;42.872;74.622;2022-11-20T07:33:28;15.20;43.50
52799;DHT22;38667;42.872;74.622;2022-11-20T07:35:55;15.20;42.90
52799;DHT22;38667;42.872;74.622;2022-11-20T07:38:21;15.20;43.60
52799;DHT22;38667;42.872;74.622;2022-11-20T07:40:47;15.30;43.70
52799;DHT22;38667;42.872;74.622;2022-11-20T07:43:14;15.20;43.30
52799;DHT22;38667;42.872;74.622;2022-11-20T07:45:40;15.00;42.90
52799;DHT22;38667;42.872;74.622;2022-11-20T07:48:06;14.90;43.40
52799;DHT22;38667;42.872;74.622;2022-11-20T07:50:34;14.80;44.20
52799;DHT22;38667;42.872;74.622;2022-11-20T07:53:02;14.70;43.50
52799;DHT22;38667;42.872;74.622;2022-11-20T07:55:29;14.60;45.50
52799;DHT22;38667;42.872;74.622;2022-11-20T07:57:55;14.50;44.10
52799;DHT22;38667;42.872;74.622;2022-11-20T08:00:22;14.40;44.20
52799;DHT22;38667;42.872;74.622;2022-11-20T08:02:49;14.50;44.90
52799;DHT22;38667;42.872;74.622;2022-11-20T08:05:15;14.50;45.70
52799;DHT22;38667;42.872;74.622;2022-11-20T08:07:44;14.40;44.60
52799;DHT22;38667;42.872;74.622;2022-11-20T08:10:12;14.30;45.20
52799;DHT22;38667;42.872;74.622;2022-11-20T08:12:44;14.20;44.70
52799;DHT22;38667;42.872;74.622;2022-11-20T08:15:10;14.30;46.00
52799;DHT22;38667;42.872;74.622;2022-11-20T08:17:37;14.30;45.30
52799;DHT22;38667;42.872;74.622;2022-11-20T08:20:04;14.40;45.40
52799;DHT22;38667;42.872;74.622;2022-11-20T08:22:30;14.40;46.00
52799;DHT22;38667;42.872;74.622;2022-11-20T08:24:58;14.50;46.10
52799;DHT22;38667;42.872;74.622;2022-11-20T08:27:24;14.60;45.20
52799;DHT22;38667;42.872;74.622;2022-11-20T08:29:51;14.50;45.70
52799;DHT22;38667;42.872;74.622;2022-11-20T08:32:17;14.50;46.40
52799;DHT22;38667;42.872;74.622;2022-11-20T08:34:43;14.50;46.40
52799;DHT22;38667;42.872;74.622;2022-11-20T08:37:09;14.40;46.50
52799;DHT22;38667;42.872;74.622;2022-11-20T08:39:36;14.40;45.90
52799;DHT22;38667;42.872;74.622;2022-11-20T08:42:06;14.30;46.10
52799;DHT22;38667;42.872;74.622;2022-11-20T08:44:33;14.30;46.80
52799;DHT22;38667;42.872;74.622;2022-11-20T08:47:00;14.30;46.50
52799;DHT22;38667;42.872;74.622;2022-11-20T08:49:26;14.20;47.00
52799;DHT22;38667;42.872;74.622;2022-11-20T08:51:53;14.20;47.00
52799;DHT22;38667;42.872;74.622;2022-11-20T08:54:19;14.20;47.30
52799;DHT22;38667;42.872;74.622;2022-11-20T08:56:45;14.20;47.80
52799;DHT22;38667;42.872;74.622;2022-11-20T08:59:13;14.10;48.10
52799;DHT22;38667;42.872;74.622;2022-11-20T09:01:39;14.10;48.50
52799;DHT22;38667;42.872;74.622;2022-11-20T09:04:06;14.00;48.60
52799;DHT22;38667;42.872;74.622;2022-11-20T09:06:32;13.90;48.10
52799;DHT22;38667;42.872;74.622;2022-11-20T09:08:58;13.80;48.40
52799;DHT22;38667;42.872;74.622;2022-11-20T09:11:25;13.70;49.20
52799;DHT22;38667;42.872;74.622;2022-11-20T09:13:51;13.70;49.10
52799;DHT22;38667;42.872;74.622;2022-11-20T09:16:19;13.70;49.50
52799;DHT22;38667;42.872;74.622;2022-11-20T09:18:45;13.70;49.30
52799;DHT22;38667;42.872;74.622;2022-11-20T09:21:12;13.70;49.70
52799;DHT22;38667;42.872;74.622;2022-11-20T09:23:39;13.70;49.50
52799;DHT22;38667;42.872;74.622;2022-11-20T09:26:06;13.70;49.90
52799;DHT22;38667;42.872;74.622;2022-11-20T09:28:33;13.60;49.40
52799;DHT22;38667;42.872;74.622;2022-11-20T09:31:00;13.60;49.90
52799;DHT22;38667;42.872;74.622;2022-11-20T09:33:28;13.50;49.90
52799;DHT22;38667;42.872;74.622;2022-11-20T09:35:54;13.60;50.00
52799;DHT22;38667;42.872;74.622;2022-11-20T09:38:20;13.50;49.90
52799;DHT22;38667;42.872;74.622;2022-11-20T09:40:54;13.50;50.40
52799;DHT22;38667;42.872;74.622;2022-11-20T09:43:28;13.50;50.60
52799;DHT22;38667;42.872;74.622;2022-11-20T09:46:06;13.40;49.60
52799;DHT22;38667;42.872;74.622;2022-11-20T09:48:49;13.50;50.00
52799;DHT22;38667;42.872;74.622;2022-11-20T09:51:25;13.50;50.60
52799;DHT22;38667;42.872;74.622;2022-11-20T09:54:03;13.60;49.90
52799;DHT22;38667;42.872;74.622;2022-11-20T09:56:34;13.60;49.60
52799;DHT22;38667;42.872;74.622;2022-11-20T09:59:05;13.60;50.00
52799;DHT22;38667;42.872;74.622;2022-11-20T10:01:35;13.70;50.50
52799;DHT22;38667;42.872;74.622;2022-11-20T10:04:06;13.70;50.30
52799;DHT22;38667;42.872;74.622;2022-11-20T10:06:33;13.70;50.30
52799;DHT22;38667;42.872;74.622;2022-11-20T10:09:14;13.70;50.90
52799;DHT22;38667;42.872;74.622;2022-11-20T10:11:48;13.70;50.90
52799;DHT22;38667;42.872;74.622;2022-11-20T10:14:29;13.70;52.20
52799;DHT22;38667;42.872;74.622;2022-11-20T10:17:08;13.70;52.80
52799;DHT22;38667;42.872;74.622;2022-11-20T10:19:53;13.70;53.60
52799;DHT22;38667;42.872;74.622;2022-11-20T10:22:34;13.70;54.10
52799;DHT22;38667;42.872;74.622;2022-11-20T10:25:11;13.80;54.20
52799;DHT22;38667;42.872;74.622;2022-11-20T10:28:02;13.70;56.50
52799;DHT22;38667;42.872;74.622;2022-11-20T10:30:32;13.60;59.10
52799;DHT22;38667;42.872;74.622;2022-11-20T10:33:04;13.40;59.70
52799;DHT22;38667;42.872;74.622;2022-11-20T10:35:40;13.30;60.40
52799;DHT22;38667;42.872;74.622;2022-11-20T10:38:14;13.20;60.70
52799;DHT22;38667;42.872;74.622;2022-11-20T10:40:56;13.10;61.90
52799;DHT22;38667;42.872;74.622;2022-11-20T10:43:32;13.10;63.40
52799;DHT22;38667;42.872;74.622;2022-11-20T10:46:01;13.10;62.80
52799;DHT22;38667;42.872;74.622;2022-11-20T10:48:31;13.10;62.20
52799;DHT22;38667;42.872;74.622;2022-11-20T10:51:08;13.00;62.20
52799;DHT22;38667;42.872;74.622;2022-11-20T10:53:56;12.80;62.40
52799;DHT22;38667;42.872;74.622;2022-11-20T10:56:30;12.70;63.10
52799;DHT22;38667;42.872;74.622;2022-11-20T10:59:38;12.60;62.50
52799;DHT22;38667;42.872;74.622;2022-11-20T11:02:18;12.50;63.00
52799;DHT22;38667;42.872;74.622;2022-11-20T11:04:46;12.40;62.60
52799;DHT22;38667;42.872;74.622;2022-11-20T11:07:16;12.40;61.80
52799;DHT22;38667;42.872;74.622;2022-11-20T11:09:48;12.40;61.40
52799;DHT22;38667;42.872;74.622;2022-11-20T11:12:14;12.40;61.20
52799;DHT22;38667;42.872;74.622;2022-11-20T11:14:48;12.40;61.30
52799;DHT22;38667;42.872;74.622;2022-11-20T11:17:27;12.30;61.20
52799;DHT22;38667;42.872;74.622;2022-11-20T11:20:01;12.20;62.60
52799;DHT22;38667;42.872;74.622;2022-11-20T11:22:31;12.20;64.20
52799;DHT22;38667;42.872;74.622;2022-11-20T11:24:57;12.10;63.30
52799;DHT22;38667;42.872;74.622;2022-11-20T11:27:24;12.00;63.50
52799;DHT22;38667;42.872;74.622;2022-11-20T11:29:50;11.90;64.30
52799;DHT22;38667;42.872;74.622;2022-11-20T11:32:27;11.90;64.30
52799;DHT22;38667;42.872;74.622;2022-11-20T11:35:00;11.90;63.90
52799;DHT22;38667;42.872;74.622;2022-11-20T11:37:34;11.90;63.50
52799;DHT22;38667;42.872;74.622;2022-11-20T11:40:02;11.90;62.80
52799;DHT22;38667;42.872;74.622;2022-11-20T11:42:29;11.90;63.20
52799;DHT22;38667;42.872;74.622;2022-11-20T11:44:58;11.90;62.80
52799;DHT22;38667;42.872;74.622;2022-11-20T11:47:26;11.90;62.80
52799;DHT22;38667;42.872;74.622;2022-11-20T11:50:07;11.80;62.50
52799;DHT22;38667;42.872;74.622;2022-11-20T11:52:43;11.80;62.30
52799;DHT22;38667;42.872;74.622;2022-11-20T11:55:15;11.80;62.70
52799;DHT22;38667;42.872;74.622;2022-11-20T11:57:47;11.70;63.30
52799;DHT22;38667;42.872;74.622;2022-11-20T12:00:17;11.60;63.00
52799;DHT22;38667;42.872;74.622;2022-11-20T12:02:53;11.60;63.30
52799;DHT22;38667;42.872;74.622;2022-11-20T12:05:24;11.60;63.80
52799;DHT22;38667;42.872;74.622;2022-11-20T12:07:56;11.60;64.10
52799;DHT22;38667;42.872;74.622;2022-11-20T12:10:37;11.60;64.00
52799;DHT22;38667;42.872;74.622;2022-11-20T12:13:15;11.60;64.70
52799;DHT22;38667;42.872;74.622;2022-11-20T12:15:45;11.50;64.90
52799;DHT22;38667;42.872;74.622;2022-11-20T12:18:16;11.50;65.90
52799;DHT22;38667;42.872;74.622;2022-11-20T12:20:48;11.40;66.10
52799;DHT22;38667;42.872;74.622;2022-11-20T12:23:26;11.40;66.60
52799;DHT22;38667;42.872;74.622;2022-11-20T12:25:57;11.40;67.10
52799;DHT22;38667;42.872;74.622;2022-11-20T12:28:44;11.30;67.30
52799;DHT22;38667;42.872;74.622;2022-11-20T12:31:38;11.30;67.70
52799;DHT22;38667;42.872;74.622;2022-11-20T12:34:15;11.20;67.80
52799;DHT22;38667;42.872;74.622;2022-11-20T12:36:52;11.30;68.60
52799;DHT22;38667;42.872;74.622;2022-11-20T12:39:41;11.30;68.40
52799;DHT22;38667;42.872;74.622;2022-11-20T12:42:25;11.30;68.60
52799;DHT22;38667;42.872;74.622;2022-11-20T12:45:09;11.30;68.90
52799;DHT22;38667;42.872;74.622;2022-11-20T12:47:55;11.30;68.80
52799;DHT22;38667;42.872;74.622;2022-11-20T12:50:35;11.30;68.80
52799;DHT22;38667;42.872;74.622;2022-11-20T12:53:05;11.20;68.90
52799;DHT22;38667;42.872;74.622;2022-11-20T12:55:47;11.30;69.20
52799;DHT22;38667;42.872;74.622;2022-11-20T12:58:23;11.10;69.10
52799;DHT22;38667;42.872;74.622;2022-11-20T13:00:55;11.00;69.90
52799;DHT22;38667;42.872;74.622;2022-11-20T13:03:34;10.90;70.70
52799;DHT22;38667;42.872;74.622;2022-11-20T13:06:12;10.90;70.90
52799;DHT22;38667;42.872;74.622;2022-11-20T13:08:41;10.90;71.20
52799;DHT22;38667;42.872;74.622;2022-11-20T13:11:17;10.90;71.60
52799;DHT22;38667;42.872;74.622;2022-11-20T13:14:14;10.80;71.70
52799;DHT22;38667;42.872;74.622;2022-11-20T13:16:47;10.80;72.10
52799;DHT22;38667;42.872;74.622;2022-11-20T13:19:16;10.70;72.80
52799;DHT22;38667;42.872;74.622;2022-11-20T13:21:44;10.70;73.20
52799;DHT22;38667;42.872;74.622;2022-11-20T13:24:22;10.60;73.70
52799;DHT22;38667;42.872;74.622;2022-11-20T13:27:03;10.50;74.00
52799;DHT22;38667;42.872;74.622;2022-11-20T13:29:30;10.50;74.30
52799;DHT22;38667;42.872;74.622;2022-11-20T13:32:05;10.40;74.60
52799;DHT22;38667;42.872;74.622;2022-11-20T13:34:32;10.40;75.10
52799;DHT22;38667;42.872;74.622;2022-11-20T13:36:59;10.40;75.60
52799;DHT22;38667;42.872;74.622;2022-11-20T13:39:27;10.30;75.80
52799;DHT22;38667;42.872;74.622;2022-11-20T13:41:59;10.40;76.10
52799;DHT22;38667;42.872;74.622;2022-11-20T13:44:30;10.30;76.30
52799;DHT22;38667;42.872;74.622;2022-11-20T13:46:59;10.20;76.30
52799;DHT22;38667;42.872;74.622;2022-11-20T13:49:29;10.30;76.50
52799;DHT22;38667;42.872;74.622;2022-11-20T13:52:05;10.30;76.60
52799;DHT22;38667;42.872;74.622;2022-11-20T13:54:49;10.30;76.50
52799;DHT22;38667;42.872;74.622;2022-11-20T13:57:35;10.30;76.80
52799;DHT22;38667;42.872;74.622;2022-11-20T14:00:12;10.20;76.90
52799;DHT22;38667;42.872;74.622;2022-11-20T14:02:39;10.30;76.90
52799;DHT22;38667;42.872;74.622;2022-11-20T14:05:06;10.20;76.70
52799;DHT22;38667;42.872;74.622;2022-11-20T14:07:41;10.30;77.10
52799;DHT22;38667;42.872;74.622;2022-11-20T14:10:20;10.20;77.20
52799;DHT22;38667;42.872;74.622;2022-11-20T14:12:48;10.20;77.10
52799;DHT22;38667;42.872;74.622;2022-11-20T14:15:25;10.20;77.10
52799;DHT22;38667;42.872;74.622;2022-11-20T14:17:52;10.20;77.20
52799;DHT22;38667;42.872;74.622;2022-11-20T14:20:19;10.10;77.40
52799;DHT22;38667;42.872;74.622;2022-11-20T14:22:49;10.20;77.50
52799;DHT22;38667;42.872;74.622;2022-11-20T14:25:19;10.10;77.70
52799;DHT22;38667;42.872;74.622;2022-11-20T14:27:52;10.10;77.70
52799;DHT22;38667;42.872;74.622;2022-11-20T14:30:20;10.10;78.10
52799;DHT22;38667;42.872;74.622;2022-11-20T14:32:48;10.00;77.80
52799;DHT22;38667;42.872;74.622;2022-11-20T14:35:25;10.00;78.30
52799;DHT22;38667;42.872;74.622;2022-11-20T14:37:52;10.00;78.30
52799;DHT22;38667;42.872;74.622;2022-11-20T14:40:27;10.00;78.30
52799;DHT22;38667;42.872;74.622;2022-11-20T14:42:56;10.00;78.20
52799;DHT22;38667;42.872;74.622;2022-11-20T14:45:25;10.00;78.40
52799;DHT22;38667;42.872;74.622;2022-11-20T14:47:52;10.00;78.70
52799;DHT22;38667;42.872;74.622;2022-11-20T14:50:23;10.00;79.00
52799;DHT22;38667;42.872;74.622;2022-11-20T14:52:54;10.00;78.70
52799;DHT22;38667;42.872;74.622;2022-11-20T14:55:29;10.00;78.40
52799;DHT22;38667;42.872;74.622;2022-11-20T14:57:58;10.00;78.50
52799;DHT22;38667;42.872;74.622;2022-11-20T15:00:25;10.00;78.60
52799;DHT22;38667;42.872;74.622;2022-11-20T15:02:52;10.10;78.60
52799;DHT22;38667;42.872;74.622;2022-11-20T15:05:21;10.00;78.30
52799;DHT22;38667;42.872;74.622;2022-11-20T15:07:49;10.00;78.70
52799;DHT22;38667;42.872;74.622;2022-11-20T15:10:21;10.00;79.20
52799;DHT22;38667;42.872;74.622;2022-11-20T15:12:49;10.00;79.00
52799;DHT22;38667;42.872;74.622;2022-11-20T15:15:21;10.00;78.90
52799;DHT22;38667;42.872;74.622;2022-11-20T15:17:49;10.00;79.00
52799;DHT22;38667;42.872;74.622;2022-11-20T15:20:16;9.90;79.60
52799;DHT22;38667;42.872;74.622;2022-11-20T15:22:43;9.80;79.10
52799;DHT22;38667;42.872;74.622;2022-11-20T15:25:13;9.60;80.00
52799;DHT22;38667;42.872;74.622;2022-11-20T15:27:40;9.20;83.80
52799;DHT22;38667;42.872;74.622;2022-11-20T15:30:14;8.90;86.70
52799;DHT22;38667;42.872;74.622;2022-11-20T15:32:43;8.80;88.70
52799;DHT22;38667;42.872;74.622;2022-11-20T15:35:10;8.60;89.90
52799;DHT22;38667;42.872;74.622;2022-11-20T15:37:40;8.40;91.40